sensor_id;sensor_type;location;lat;lon;timestamp;P1;durP1;ratioP1;P2;durP2;ratioP2
8001;SDS011;4046;48.774;8.732;2023-03-23T00:02:25;2.57;;;2.17;;
8001;SDS011;4046;48.774;8.732;2023-03-23T00:04:58;1.80;;;1.70;;
8001;SDS011;4046;48.774;8.732;2023-03-23T00:07:26;4.10;;;2.27;;
8001;SDS011;4046;48.774;8.732;2023-03-23T00:09:53;2.23;;;2.10;;
8001;SDS011;4046;48.774;8.732;2023-03-23T00:12:24;2.03;;;1.90;;
8001;SDS011;4046;48.774;8.732;2023-03-23T00:14:57;2.40;;;2.20;;
8001;SDS011;4046;48.774;8.732;2023-03-23T00:17:24;2.13;;;2.03;;
8001;SDS011;4046;48.774;8.732;2023-03-23T00:19:51;2.03;;;1.93;;
8001;SDS011;4046;48.774;8.732;2023-03-23T00:22:17;2.47;;;2.27;;
8001;SDS011;4046;48.774;8.732;2023-03-23T00:24:45;1.93;;;1.83;;
8001;SDS011;4046;48.774;8.732;2023-03-23T00:27:11;2.20;;;1.97;;
8001;SDS011;4046;48.774;8.732;2023-03-23T00:29:38;1.80;;;1.70;;
8001;SDS011;4046;48.774;8.732;2023-03-23T00:32:06;2.03;;;1.93;;
8001;SDS011;4046;48.774;8.732;2023-03-23T00:34:38;2.13;;;1.97;;
8001;SDS011;4046;48.774;8.732;2023-03-23T00:37:06;2.20;;;2.00;;
8001;SDS011;4046;48.774;8.732;2023-03-23T00:39:33;1.70;;;1.60;;
8001;SDS011;4046;48.774;8.732;2023-03-23T00:42:02;2.03;;;1.93;;
8001;SDS011;4046;48.774;8.732;2023-03-23T00:44:30;1.70;;;1.60;;
8001;SDS011;4046;48.774;8.732;2023-03-23T00:46:57;2.17;;;1.97;;
8001;SDS011;4046;48.774;8.732;2023-03-23T00:49:24;2.03;;;1.93;;
8001;SDS011;4046;48.774;8.732;2023-03-23T00:51:52;2.10;;;2.00;;
8001;SDS011;4046;48.774;8.732;2023-03-23T00:54:20;1.83;;;1.70;;
8001;SDS011;4046;48.774;8.732;2023-03-23T00:56:47;2.30;;;2.10;;
8001;SDS011;4046;48.774;8.732;2023-03-23T00:59:13;1.97;;;1.87;;
8001;SDS011;4046;48.774;8.732;2023-03-23T01:01:40;1.87;;;1.77;;
8001;SDS011;4046;48.774;8.732;2023-03-23T01:04:06;1.87;;;1.77;;
8001;SDS011;4046;48.774;8.732;2023-03-23T01:06:34;1.70;;;1.60;;
8001;SDS011;4046;48.774;8.732;2023-03-23T01:09:05;1.80;;;1.70;;
8001;SDS011;4046;48.774;8.732;2023-03-23T01:11:32;1.83;;;1.73;;
8001;SDS011;4046;48.774;8.732;2023-03-23T01:13:59;2.00;;;1.87;;
8001;SDS011;4046;48.774;8.732;2023-03-23T01:16:25;1.60;;;1.50;;
8001;SDS011;4046;48.774;8.732;2023-03-23T01:18:51;1.73;;;1.63;;
8001;SDS011;4046;48.774;8.732;2023-03-23T01:21:18;1.77;;;1.67;;
8001;SDS011;4046;48.774;8.732;2023-03-23T01:23:46;1.70;;;1.60;;
8001;SDS011;4046;48.774;8.732;2023-03-23T01:26:14;1.63;;;1.53;;
8001;SDS011;4046;48.774;8.732;2023-03-23T01:28:42;1.87;;;1.77;;
8001;SDS011;4046;48.774;8.732;2023-03-23T01:31:10;1.70;;;1.60;;
8001;SDS011;4046;48.774;8.732;2023-03-23T01:33:39;1.67;;;1.57;;
8001;SDS011;4046;48.774;8.732;2023-03-23T01:36:16;1.87;;;1.77;;
8001;SDS011;4046;48.774;8.732;2023-03-23T01:38:44;1.77;;;1.67;;
8001;SDS011;4046;48.774;8.732;2023-03-23T01:41:14;1.83;;;1.73;;
8001;SDS011;4046;48.774;8.732;2023-03-23T01:44:01;1.77;;;1.67;;
8001;SDS011;4046;48.774;8.732;2023-03-23T01:46:43;1.77;;;1.67;;
8001;SDS011;4046;48.774;8.732;2023-03-23T01:49:11;1.70;;;1.60;;
8001;SDS011;4046;48.774;8.732;2023-03-23T01:51:49;2.30;;;2.00;;
8001;SDS011;4046;48.774;8.732;2023-03-23T01:54:19;1.77;;;1.67;;
8001;SDS011;4046;48.774;8.732;2023-03-23T01:56:50;1.63;;;1.53;;
8001;SDS011;4046;48.774;8.732;2023-03-23T01:59:25;1.53;;;1.43;;
8001;SDS011;4046;48.774;8.732;2023-03-23T02:01:54;1.57;;;1.47;;
8001;SDS011;4046;48.774;8.732;2023-03-23T02:04:21;1.83;;;1.53;;
8001;SDS011;4046;48.774;8.732;2023-03-23T02:06:50;1.70;;;1.60;;
8001;SDS011;4046;48.774;8.732;2023-03-23T02:09:17;1.50;;;1.40;;
8001;SDS011;4046;48.774;8.732;2023-03-23T02:11:44;1.80;;;1.70;;
8001;SDS011;4046;48.774;8.732;2023-03-23T02:14:12;1.77;;;1.67;;
8001;SDS011;4046;48.774;8.732;2023-03-23T02:16:40;1.57;;;1.47;;
8001;SDS011;4046;48.774;8.732;2023-03-23T02:27:31;1.50;;;1.40;;
8001;SDS011;4046;48.774;8.732;2023-03-23T02:38:37;1.60;;;1.50;;
8001;SDS011;4046;48.774;8.732;2023-03-23T02:41:24;1.47;;;1.37;;
8001;SDS011;4046;48.774;8.732;2023-03-23T02:43:53;1.83;;;1.50;;
8001;SDS011;4046;48.774;8.732;2023-03-23T02:46:21;1.60;;;1.50;;
8001;SDS011;4046;48.774;8.732;2023-03-23T02:48:49;1.50;;;1.40;;
8001;SDS011;4046;48.774;8.732;2023-03-23T02:51:18;1.50;;;1.40;;
8001;SDS011;4046;48.774;8.732;2023-03-23T02:53:47;1.30;;;1.20;;
8001;SDS011;4046;48.774;8.732;2023-03-23T02:56:16;1.70;;;1.50;;
8001;SDS011;4046;48.774;8.732;2023-03-23T02:58:43;1.73;;;1.63;;
8001;SDS011;4046;48.774;8.732;2023-03-23T03:03:51;1.40;;;1.30;;
8001;SDS011;4046;48.774;8.732;2023-03-23T03:09:13;1.50;;;1.30;;
8001;SDS011;4046;48.774;8.732;2023-03-23T03:11:42;1.60;;;1.50;;
8001;SDS011;4046;48.774;8.732;2023-03-23T03:14:18;1.60;;;1.50;;
8001;SDS011;4046;48.774;8.732;2023-03-23T03:16:51;1.80;;;1.70;;
8001;SDS011;4046;48.774;8.732;2023-03-23T03:19:37;1.30;;;1.20;;
8001;SDS011;4046;48.774;8.732;2023-03-23T03:22:07;1.43;;;1.33;;
8001;SDS011;4046;48.774;8.732;2023-03-23T03:24:34;1.57;;;1.47;;
8001;SDS011;4046;48.774;8.732;2023-03-23T03:27:04;1.77;;;1.33;;
8001;SDS011;4046;48.774;8.732;2023-03-23T03:29:36;1.53;;;1.20;;
8001;SDS011;4046;48.774;8.732;2023-03-23T03:32:08;1.40;;;1.20;;
8001;SDS011;4046;48.774;8.732;2023-03-23T03:34:37;1.40;;;1.30;;
8001;SDS011;4046;48.774;8.732;2023-03-23T03:37:04;1.50;;;1.30;;
8001;SDS011;4046;48.774;8.732;2023-03-23T03:39:34;1.40;;;1.20;;
8001;SDS011;4046;48.774;8.732;2023-03-23T03:42:01;1.50;;;1.40;;
8001;SDS011;4046;48.774;8.732;2023-03-23T03:44:28;1.40;;;1.30;;
8001;SDS011;4046;48.774;8.732;2023-03-23T03:46:55;1.50;;;1.40;;
8001;SDS011;4046;48.774;8.732;2023-03-23T03:49:21;1.70;;;1.60;;
8001;SDS011;4046;48.774;8.732;2023-03-23T03:51:48;1.50;;;1.40;;
8001;SDS011;4046;48.774;8.732;2023-03-23T03:54:14;1.30;;;1.10;;
8001;SDS011;4046;48.774;8.732;2023-03-23T03:56:41;1.30;;;1.10;;
8001;SDS011;4046;48.774;8.732;2023-03-23T03:59:08;1.40;;;1.30;;
8001;SDS011;4046;48.774;8.732;2023-03-23T04:01:36;1.73;;;1.40;;
8001;SDS011;4046;48.774;8.732;2023-03-23T04:04:03;1.47;;;1.33;;
8001;SDS011;4046;48.774;8.732;2023-03-23T04:06:32;1.30;;;1.10;;
8001;SDS011;4046;48.774;8.732;2023-03-23T04:09:02;1.57;;;1.20;;
8001;SDS011;4046;48.774;8.732;2023-03-23T04:11:32;1.23;;;1.13;;
8001;SDS011;4046;48.774;8.732;2023-03-23T04:13:59;1.30;;;1.13;;
8001;SDS011;4046;48.774;8.732;2023-03-23T04:16:25;1.30;;;1.20;;
8001;SDS011;4046;48.774;8.732;2023-03-23T04:18:51;1.50;;;1.30;;
8001;SDS011;4046;48.774;8.732;2023-03-23T04:21:18;1.30;;;1.10;;
8001;SDS011;4046;48.774;8.732;2023-03-23T04:23:44;1.47;;;1.37;;
8001;SDS011;4046;48.774;8.732;2023-03-23T04:26:11;1.37;;;1.27;;
8001;SDS011;4046;48.774;8.732;2023-03-23T04:28:39;1.30;;;1.20;;
8001;SDS011;4046;48.774;8.732;2023-03-23T04:31:06;1.50;;;1.40;;
8001;SDS011;4046;48.774;8.732;2023-03-23T04:33:34;1.37;;;1.23;;
8001;SDS011;4046;48.774;8.732;2023-03-23T04:36:02;1.40;;;1.10;;
8001;SDS011;4046;48.774;8.732;2023-03-23T04:38:29;1.30;;;1.07;;
8001;SDS011;4046;48.774;8.732;2023-03-23T04:40:58;1.40;;;1.10;;
8001;SDS011;4046;48.774;8.732;2023-03-23T04:43:26;1.40;;;1.23;;
8001;SDS011;4046;48.774;8.732;2023-03-23T04:45:56;1.37;;;1.13;;
8001;SDS011;4046;48.774;8.732;2023-03-23T04:48:24;1.50;;;1.10;;
8001;SDS011;4046;48.774;8.732;2023-03-23T04:50:52;1.30;;;1.20;;
8001;SDS011;4046;48.774;8.732;2023-03-23T04:53:18;1.20;;;1.10;;
8001;SDS011;4046;48.774;8.732;2023-03-23T04:55:46;1.30;;;1.07;;
8001;SDS011;4046;48.774;8.732;2023-03-23T04:58:13;1.37;;;1.20;;
8001;SDS011;4046;48.774;8.732;2023-03-23T05:00:40;1.40;;;1.10;;
8001;SDS011;4046;48.774;8.732;2023-03-23T05:03:06;1.60;;;1.50;;
8001;SDS011;4046;48.774;8.732;2023-03-23T05:05:33;1.20;;;1.10;;
8001;SDS011;4046;48.774;8.732;2023-03-23T05:08:00;1.37;;;1.27;;
8001;SDS011;4046;48.774;8.732;2023-03-23T05:10:26;1.57;;;1.47;;
8001;SDS011;4046;48.774;8.732;2023-03-23T05:12:53;1.20;;;1.10;;
8001;SDS011;4046;48.774;8.732;2023-03-23T05:15:20;1.50;;;1.17;;
8001;SDS011;4046;48.774;8.732;2023-03-23T05:17:46;1.30;;;1.20;;
8001;SDS011;4046;48.774;8.732;2023-03-23T05:20:15;1.30;;;1.20;;
8001;SDS011;4046;48.774;8.732;2023-03-23T05:22:46;1.23;;;1.10;;
8001;SDS011;4046;48.774;8.732;2023-03-23T05:25:16;1.40;;;1.30;;
8001;SDS011;4046;48.774;8.732;2023-03-23T05:27:46;1.30;;;1.10;;
8001;SDS011;4046;48.774;8.732;2023-03-23T05:30:18;2.17;;;1.30;;
8001;SDS011;4046;48.774;8.732;2023-03-23T05:32:46;1.30;;;1.20;;
8001;SDS011;4046;48.774;8.732;2023-03-23T05:35:16;1.30;;;1.20;;
8001;SDS011;4046;48.774;8.732;2023-03-23T05:37:44;1.30;;;1.20;;
8001;SDS011;4046;48.774;8.732;2023-03-23T05:40:10;1.30;;;1.20;;
8001;SDS011;4046;48.774;8.732;2023-03-23T05:42:38;1.40;;;1.30;;
8001;SDS011;4046;48.774;8.732;2023-03-23T05:45:08;1.30;;;1.20;;
8001;SDS011;4046;48.774;8.732;2023-03-23T05:47:36;1.57;;;1.00;;
8001;SDS011;4046;48.774;8.732;2023-03-23T05:50:04;1.37;;;1.10;;
8001;SDS011;4046;48.774;8.732;2023-03-23T05:52:32;1.20;;;1.00;;
8001;SDS011;4046;48.774;8.732;2023-03-23T05:55:01;1.40;;;1.20;;
8001;SDS011;4046;48.774;8.732;2023-03-23T05:57:28;1.30;;;1.00;;
8001;SDS011;4046;48.774;8.732;2023-03-23T05:59:55;1.40;;;1.30;;
8001;SDS011;4046;48.774;8.732;2023-03-23T06:02:23;1.50;;;1.27;;
8001;SDS011;4046;48.774;8.732;2023-03-23T06:04:50;1.30;;;1.13;;
8001;SDS011;4046;48.774;8.732;2023-03-23T06:07:23;1.20;;;1.00;;
8001;SDS011;4046;48.774;8.732;2023-03-23T06:09:50;1.30;;;1.10;;
8001;SDS011;4046;48.774;8.732;2023-03-23T06:12:17;1.93;;;1.20;;
8001;SDS011;4046;48.774;8.732;2023-03-23T06:14:47;1.37;;;1.20;;
8001;SDS011;4046;48.774;8.732;2023-03-23T06:17:14;1.43;;;1.33;;
8001;SDS011;4046;48.774;8.732;2023-03-23T06:19:43;1.20;;;1.00;;
8001;SDS011;4046;48.774;8.732;2023-03-23T06:22:11;1.30;;;1.10;;
8001;SDS011;4046;48.774;8.732;2023-03-23T06:24:37;1.30;;;1.10;;
8001;SDS011;4046;48.774;8.732;2023-03-23T06:27:04;1.30;;;1.13;;
8001;SDS011;4046;48.774;8.732;2023-03-23T06:29:30;1.27;;;1.10;;
8001;SDS011;4046;48.774;8.732;2023-03-23T06:31:57;1.30;;;1.10;;
8001;SDS011;4046;48.774;8.732;2023-03-23T06:34:25;1.60;;;1.10;;
8001;SDS011;4046;48.774;8.732;2023-03-23T06:36:52;1.30;;;1.10;;
8001;SDS011;4046;48.774;8.732;2023-03-23T06:39:19;1.40;;;1.27;;
8001;SDS011;4046;48.774;8.732;2023-03-23T06:41:45;1.40;;;1.10;;
8001;SDS011;4046;48.774;8.732;2023-03-23T06:44:11;1.20;;;1.10;;
8001;SDS011;4046;48.774;8.732;2023-03-23T06:46:39;1.50;;;1.40;;
8001;SDS011;4046;48.774;8.732;2023-03-23T06:49:06;1.50;;;1.40;;
8001;SDS011;4046;48.774;8.732;2023-03-23T06:51:33;1.20;;;1.00;;
8001;SDS011;4046;48.774;8.732;2023-03-23T06:54:00;1.30;;;1.10;;
8001;SDS011;4046;48.774;8.732;2023-03-23T06:56:26;1.33;;;1.10;;
8001;SDS011;4046;48.774;8.732;2023-03-23T06:58:53;1.27;;;1.17;;
8001;SDS011;4046;48.774;8.732;2023-03-23T07:01:19;1.60;;;1.20;;
8001;SDS011;4046;48.774;8.732;2023-03-23T07:03:45;1.30;;;0.97;;
8001;SDS011;4046;48.774;8.732;2023-03-23T07:06:11;1.40;;;1.20;;
8001;SDS011;4046;48.774;8.732;2023-03-23T07:08:38;1.40;;;1.30;;
8001;SDS011;4046;48.774;8.732;2023-03-23T07:11:04;1.30;;;1.00;;
8001;SDS011;4046;48.774;8.732;2023-03-23T07:13:32;1.37;;;1.13;;
8001;SDS011;4046;48.774;8.732;2023-03-23T07:15:58;1.30;;;1.00;;
8001;SDS011;4046;48.774;8.732;2023-03-23T07:18:25;1.40;;;1.10;;
8001;SDS011;4046;48.774;8.732;2023-03-23T07:20:51;1.20;;;1.00;;
8001;SDS011;4046;48.774;8.732;2023-03-23T07:23:18;1.30;;;1.20;;
8001;SDS011;4046;48.774;8.732;2023-03-23T07:25:45;1.50;;;1.10;;
8001;SDS011;4046;48.774;8.732;2023-03-23T07:28:12;1.30;;;1.10;;
8001;SDS011;4046;48.774;8.732;2023-03-23T07:30:39;1.30;;;1.10;;
8001;SDS011;4046;48.774;8.732;2023-03-23T07:33:06;1.83;;;1.20;;
8001;SDS011;4046;48.774;8.732;2023-03-23T07:35:33;1.20;;;1.00;;
8001;SDS011;4046;48.774;8.732;2023-03-23T07:38:01;1.40;;;1.10;;
8001;SDS011;4046;48.774;8.732;2023-03-23T07:40:29;1.27;;;1.17;;
8001;SDS011;4046;48.774;8.732;2023-03-23T07:42:59;1.40;;;1.20;;
8001;SDS011;4046;48.774;8.732;2023-03-23T07:45:26;1.97;;;1.43;;
8001;SDS011;4046;48.774;8.732;2023-03-23T07:47:53;1.73;;;1.00;;
8001;SDS011;4046;48.774;8.732;2023-03-23T07:50:19;2.23;;;1.00;;
8001;SDS011;4046;48.774;8.732;2023-03-23T07:52:50;1.73;;;1.03;;
8001;SDS011;4046;48.774;8.732;2023-03-23T07:55:20;1.50;;;1.20;;
8001;SDS011;4046;48.774;8.732;2023-03-23T07:57:47;1.30;;;1.17;;
8001;SDS011;4046;48.774;8.732;2023-03-23T08:00:17;1.27;;;1.00;;
8001;SDS011;4046;48.774;8.732;2023-03-23T08:02:49;1.30;;;1.10;;
8001;SDS011;4046;48.774;8.732;2023-03-23T08:05:17;1.20;;;1.00;;
8001;SDS011;4046;48.774;8.732;2023-03-23T08:07:44;1.33;;;1.23;;
8001;SDS011;4046;48.774;8.732;2023-03-23T08:10:11;1.23;;;0.87;;
8001;SDS011;4046;48.774;8.732;2023-03-23T08:12:38;1.30;;;1.00;;
8001;SDS011;4046;48.774;8.732;2023-03-23T08:15:06;1.67;;;1.20;;
8001;SDS011;4046;48.774;8.732;2023-03-23T08:17:33;1.33;;;1.10;;
8001;SDS011;4046;48.774;8.732;2023-03-23T08:20:00;1.30;;;1.00;;
8001;SDS011;4046;48.774;8.732;2023-03-23T08:22:26;1.60;;;1.23;;
8001;SDS011;4046;48.774;8.732;2023-03-23T08:24:54;1.20;;;1.00;;
8001;SDS011;4046;48.774;8.732;2023-03-23T08:27:21;1.20;;;1.10;;
8001;SDS011;4046;48.774;8.732;2023-03-23T08:29:47;1.33;;;1.23;;
8001;SDS011;4046;48.774;8.732;2023-03-23T08:32:14;1.20;;;1.00;;
8001;SDS011;4046;48.774;8.732;2023-03-23T08:34:40;1.30;;;1.13;;
8001;SDS011;4046;48.774;8.732;2023-03-23T08:37:07;1.20;;;1.00;;
8001;SDS011;4046;48.774;8.732;2023-03-23T08:39:34;1.37;;;1.27;;
8001;SDS011;4046;48.774;8.732;2023-03-23T08:42:00;1.30;;;1.20;;
8001;SDS011;4046;48.774;8.732;2023-03-23T08:44:27;1.30;;;1.00;;
8001;SDS011;4046;48.774;8.732;2023-03-23T08:46:53;1.50;;;1.20;;
8001;SDS011;4046;48.774;8.732;2023-03-23T08:49:23;1.20;;;0.90;;
8001;SDS011;4046;48.774;8.732;2023-03-23T08:51:49;1.83;;;1.10;;
8001;SDS011;4046;48.774;8.732;2023-03-23T08:54:15;1.30;;;1.20;;
8001;SDS011;4046;48.774;8.732;2023-03-23T08:56:43;1.30;;;1.10;;
8001;SDS011;4046;48.774;8.732;2023-03-23T08:59:09;1.40;;;1.30;;
8001;SDS011;4046;48.774;8.732;2023-03-23T09:01:35;1.30;;;0.90;;
8001;SDS011;4046;48.774;8.732;2023-03-23T09:04:01;1.33;;;1.23;;
8001;SDS011;4046;48.774;8.732;2023-03-23T09:06:28;1.47;;;1.10;;
8001;SDS011;4046;48.774;8.732;2023-03-23T09:08:54;2.00;;;1.10;;
8001;SDS011;4046;48.774;8.732;2023-03-23T09:11:24;1.40;;;1.10;;
8001;SDS011;4046;48.774;8.732;2023-03-23T09:13:50;1.40;;;1.20;;
8001;SDS011;4046;48.774;8.732;2023-03-23T09:16:17;1.37;;;1.27;;
8001;SDS011;4046;48.774;8.732;2023-03-23T09:18:43;1.30;;;1.07;;
8001;SDS011;4046;48.774;8.732;2023-03-23T09:21:10;1.40;;;1.30;;
8001;SDS011;4046;48.774;8.732;2023-03-23T09:23:36;1.20;;;1.00;;
8001;SDS011;4046;48.774;8.732;2023-03-23T09:26:02;1.40;;;1.20;;
8001;SDS011;4046;48.774;8.732;2023-03-23T09:28:29;1.40;;;1.30;;
8001;SDS011;4046;48.774;8.732;2023-03-23T09:30:56;1.33;;;1.23;;
8001;SDS011;4046;48.774;8.732;2023-03-23T09:33:25;1.20;;;1.10;;
8001;SDS011;4046;48.774;8.732;2023-03-23T09:35:54;1.63;;;1.20;;
8001;SDS011;4046;48.774;8.732;2023-03-23T09:38:20;1.27;;;1.03;;
8001;SDS011;4046;48.774;8.732;2023-03-23T09:40:48;1.30;;;1.20;;
8001;SDS011;4046;48.774;8.732;2023-03-23T09:49:23;1.20;;;1.00;;
8001;SDS011;4046;48.774;8.732;2023-03-23T09:52:12;1.30;;;1.17;;
8001;SDS011;4046;48.774;8.732;2023-03-23T09:54:50;1.53;;;1.30;;
8001;SDS011;4046;48.774;8.732;2023-03-23T09:57:27;1.43;;;1.10;;
8001;SDS011;4046;48.774;8.732;2023-03-23T10:01:10;1.40;;;1.20;;
8001;SDS011;4046;48.774;8.732;2023-03-23T10:03:32;1.30;;;1.20;;
8001;SDS011;4046;48.774;8.732;2023-03-23T10:06:12;1.30;;;1.20;;
8001;SDS011;4046;48.774;8.732;2023-03-23T10:08:47;1.30;;;1.10;;
8001;SDS011;4046;48.774;8.732;2023-03-23T10:11:26;1.40;;;1.10;;
8001;SDS011;4046;48.774;8.732;2023-03-23T10:16:57;1.60;;;1.20;;
8001;SDS011;4046;48.774;8.732;2023-03-23T10:19:39;1.60;;;1.20;;
8001;SDS011;4046;48.774;8.732;2023-03-23T10:22:14;1.27;;;1.17;;
8001;SDS011;4046;48.774;8.732;2023-03-23T10:27:25;1.40;;;1.30;;
8001;SDS011;4046;48.774;8.732;2023-03-23T10:30:02;1.87;;;1.40;;
8001;SDS011;4046;48.774;8.732;2023-03-23T10:32:41;1.20;;;1.10;;
8001;SDS011;4046;48.774;8.732;2023-03-23T10:35:19;1.30;;;1.20;;
8001;SDS011;4046;48.774;8.732;2023-03-23T10:37:56;1.30;;;1.10;;
8001;SDS011;4046;48.774;8.732;2023-03-23T10:40:29;1.30;;;1.20;;
8001;SDS011;4046;48.774;8.732;2023-03-23T10:42:59;1.30;;;1.20;;
8001;SDS011;4046;48.774;8.732;2023-03-23T10:45:26;1.30;;;1.07;;
8001;SDS011;4046;48.774;8.732;2023-03-23T10:47:59;1.30;;;1.10;;
8001;SDS011;4046;48.774;8.732;2023-03-23T10:50:43;1.30;;;1.20;;
8001;SDS011;4046;48.774;8.732;2023-03-23T10:53:15;1.40;;;1.30;;
8001;SDS011;4046;48.774;8.732;2023-03-23T10:55:43;1.87;;;1.10;;
8001;SDS011;4046;48.774;8.732;2023-03-23T10:58:11;1.30;;;1.10;;
8001;SDS011;4046;48.774;8.732;2023-03-23T11:00:54;1.33;;;1.20;;
8001;SDS011;4046;48.774;8.732;2023-03-23T11:03:27;1.30;;;1.20;;
8001;SDS011;4046;48.774;8.732;2023-03-23T11:05:59;1.40;;;1.23;;
8001;SDS011;4046;48.774;8.732;2023-03-23T11:08:30;1.30;;;1.10;;
8001;SDS011;4046;48.774;8.732;2023-03-23T11:11:11;1.23;;;1.13;;
8001;SDS011;4046;48.774;8.732;2023-03-23T11:13:42;1.30;;;1.20;;
8001;SDS011;4046;48.774;8.732;2023-03-23T11:16:10;1.93;;;1.17;;
8001;SDS011;4046;48.774;8.732;2023-03-23T11:18:47;1.23;;;1.00;;
8001;SDS011;4046;48.774;8.732;2023-03-23T11:21:13;1.27;;;1.07;;
8001;SDS011;4046;48.774;8.732;2023-03-23T11:23:41;1.33;;;1.10;;
8001;SDS011;4046;48.774;8.732;2023-03-23T11:26:16;1.30;;;1.20;;
8001;SDS011;4046;48.774;8.732;2023-03-23T11:28:58;1.30;;;1.10;;
8001;SDS011;4046;48.774;8.732;2023-03-23T11:31:41;1.40;;;1.20;;
8001;SDS011;4046;48.774;8.732;2023-03-23T11:34:13;1.20;;;1.10;;
8001;SDS011;4046;48.774;8.732;2023-03-23T11:37:06;1.30;;;1.00;;
8001;SDS011;4046;48.774;8.732;2023-03-23T11:42:20;1.30;;;1.13;;
8001;SDS011;4046;48.774;8.732;2023-03-23T11:45:05;1.50;;;1.00;;
8001;SDS011;4046;48.774;8.732;2023-03-23T11:47:42;1.30;;;1.10;;
8001;SDS011;4046;48.774;8.732;2023-03-23T11:50:48;1.30;;;1.10;;
8001;SDS011;4046;48.774;8.732;2023-03-23T11:58:56;1.30;;;1.20;;
8001;SDS011;4046;48.774;8.732;2023-03-23T12:12:18;1.20;;;1.10;;
8001;SDS011;4046;48.774;8.732;2023-03-23T12:23:38;1.30;;;1.10;;
8001;SDS011;4046;48.774;8.732;2023-03-23T12:26:25;1.30;;;1.10;;
8001;SDS011;4046;48.774;8.732;2023-03-23T12:43:15;1.20;;;1.00;;
8001;SDS011;4046;48.774;8.732;2023-03-23T12:48:14;1.17;;;0.93;;
8001;SDS011;4046;48.774;8.732;2023-03-23T12:50:46;1.20;;;1.00;;
8001;SDS011;4046;48.774;8.732;2023-03-23T12:53:29;1.20;;;1.00;;
8001;SDS011;4046;48.774;8.732;2023-03-23T12:56:08;1.30;;;1.00;;
8001;SDS011;4046;48.774;8.732;2023-03-23T12:58:41;1.30;;;1.10;;
8001;SDS011;4046;48.774;8.732;2023-03-23T13:01:11;1.20;;;1.10;;
8001;SDS011;4046;48.774;8.732;2023-03-23T13:06:44;1.27;;;1.03;;
8001;SDS011;4046;48.774;8.732;2023-03-23T13:11:54;1.30;;;1.20;;
8001;SDS011;4046;48.774;8.732;2023-03-23T13:20:03;1.20;;;0.90;;
8001;SDS011;4046;48.774;8.732;2023-03-23T13:25:19;1.27;;;1.13;;
8001;SDS011;4046;48.774;8.732;2023-03-23T13:28:15;1.30;;;1.20;;
8001;SDS011;4046;48.774;8.732;2023-03-23T13:30:56;1.20;;;1.00;;
8001;SDS011;4046;48.774;8.732;2023-03-23T13:33:24;1.30;;;1.10;;
8001;SDS011;4046;48.774;8.732;2023-03-23T13:35:51;1.20;;;1.10;;
8001;SDS011;4046;48.774;8.732;2023-03-23T13:38:22;1.40;;;1.10;;
8001;SDS011;4046;48.774;8.732;2023-03-23T13:40:50;1.20;;;1.07;;
8001;SDS011;4046;48.774;8.732;2023-03-23T13:43:29;1.30;;;1.03;;
8001;SDS011;4046;48.774;8.732;2023-03-23T13:49:14;1.30;;;1.10;;
8001;SDS011;4046;48.774;8.732;2023-03-23T13:56:52;1.57;;;1.20;;
8001;SDS011;4046;48.774;8.732;2023-03-23T14:01:53;1.30;;;1.20;;
8001;SDS011;4046;48.774;8.732;2023-03-23T14:04:21;1.63;;;1.40;;
8001;SDS011;4046;48.774;8.732;2023-03-23T14:06:56;1.53;;;1.33;;
8001;SDS011;4046;48.774;8.732;2023-03-23T14:09:26;1.33;;;1.23;;
8001;SDS011;4046;48.774;8.732;2023-03-23T14:11:58;1.30;;;1.20;;
8001;SDS011;4046;48.774;8.732;2023-03-23T14:14:56;1.70;;;1.30;;
8001;SDS011;4046;48.774;8.732;2023-03-23T14:17:31;1.57;;;1.47;;
8001;SDS011;4046;48.774;8.732;2023-03-23T14:20:04;1.20;;;1.10;;
8001;SDS011;4046;48.774;8.732;2023-03-23T14:22:33;1.30;;;1.20;;
8001;SDS011;4046;48.774;8.732;2023-03-23T14:25:08;1.60;;;1.50;;
8001;SDS011;4046;48.774;8.732;2023-03-23T14:27:43;1.30;;;1.20;;
8001;SDS011;4046;48.774;8.732;2023-03-23T14:30:15;1.33;;;1.20;;
8001;SDS011;4046;48.774;8.732;2023-03-23T14:32:43;1.43;;;1.33;;
8001;SDS011;4046;48.774;8.732;2023-03-23T14:35:27;1.47;;;1.23;;
8001;SDS011;4046;48.774;8.732;2023-03-23T14:37:57;1.40;;;1.30;;
8001;SDS011;4046;48.774;8.732;2023-03-23T14:40:25;1.40;;;1.27;;
8001;SDS011;4046;48.774;8.732;2023-03-23T14:42:53;1.50;;;1.13;;
8001;SDS011;4046;48.774;8.732;2023-03-23T14:45:21;1.60;;;1.30;;
8001;SDS011;4046;48.774;8.732;2023-03-23T14:47:50;1.50;;;1.30;;
8001;SDS011;4046;48.774;8.732;2023-03-23T14:50:23;1.60;;;1.40;;
8001;SDS011;4046;48.774;8.732;2023-03-23T14:52:57;1.53;;;1.30;;
8001;SDS011;4046;48.774;8.732;2023-03-23T14:55:33;1.20;;;1.10;;
8001;SDS011;4046;48.774;8.732;2023-03-23T14:58:06;1.50;;;1.20;;
8001;SDS011;4046;48.774;8.732;2023-03-23T15:00:36;1.27;;;1.17;;
8001;SDS011;4046;48.774;8.732;2023-03-23T15:03:06;1.30;;;1.20;;
8001;SDS011;4046;48.774;8.732;2023-03-23T15:05:40;1.77;;;1.10;;
8001;SDS011;4046;48.774;8.732;2023-03-23T15:08:12;1.30;;;1.00;;
8001;SDS011;4046;48.774;8.732;2023-03-23T15:10:51;1.30;;;1.20;;
8001;SDS011;4046;48.774;8.732;2023-03-23T15:13:24;1.43;;;1.33;;
8001;SDS011;4046;48.774;8.732;2023-03-23T15:15:51;1.40;;;1.20;;
8001;SDS011;4046;48.774;8.732;2023-03-23T15:18:23;3.40;;;1.13;;
8001;SDS011;4046;48.774;8.732;2023-03-23T15:20:56;1.20;;;1.00;;
8001;SDS011;4046;48.774;8.732;2023-03-23T15:23:27;1.40;;;1.10;;
8001;SDS011;4046;48.774;8.732;2023-03-23T15:25:55;1.43;;;1.33;;
8001;SDS011;4046;48.774;8.732;2023-03-23T15:28:29;1.37;;;1.27;;
8001;SDS011;4046;48.774;8.732;2023-03-23T15:31:01;1.30;;;1.20;;
8001;SDS011;4046;48.774;8.732;2023-03-23T15:33:36;1.30;;;1.03;;
8001;SDS011;4046;48.774;8.732;2023-03-23T15:36:13;1.53;;;1.20;;
8001;SDS011;4046;48.774;8.732;2023-03-23T15:38:45;1.30;;;1.20;;
8001;SDS011;4046;48.774;8.732;2023-03-23T15:41:29;1.60;;;1.50;;
8001;SDS011;4046;48.774;8.732;2023-03-23T15:44:09;1.30;;;1.10;;
8001;SDS011;4046;48.774;8.732;2023-03-23T15:46:49;1.47;;;1.37;;
8001;SDS011;4046;48.774;8.732;2023-03-23T15:49:17;1.40;;;1.30;;
8001;SDS011;4046;48.774;8.732;2023-03-23T15:51:43;1.30;;;1.20;;
8001;SDS011;4046;48.774;8.732;2023-03-23T15:54:12;1.30;;;1.20;;
8001;SDS011;4046;48.774;8.732;2023-03-23T15:56:39;1.27;;;1.00;;
8001;SDS011;4046;48.774;8.732;2023-03-23T15:59:07;1.30;;;1.10;;
8001;SDS011;4046;48.774;8.732;2023-03-23T16:01:34;1.57;;;1.20;;
8001;SDS011;4046;48.774;8.732;2023-03-23T16:04:06;1.27;;;1.10;;
8001;SDS011;4046;48.774;8.732;2023-03-23T16:06:35;1.40;;;1.10;;
8001;SDS011;4046;48.774;8.732;2023-03-23T16:09:02;1.20;;;1.00;;
8001;SDS011;4046;48.774;8.732;2023-03-23T16:11:30;1.50;;;1.33;;
8001;SDS011;4046;48.774;8.732;2023-03-23T16:13:57;1.37;;;1.27;;
8001;SDS011;4046;48.774;8.732;2023-03-23T16:16:43;1.50;;;1.40;;
8001;SDS011;4046;48.774;8.732;2023-03-23T16:19:12;1.30;;;1.10;;
8001;SDS011;4046;48.774;8.732;2023-03-23T16:21:39;1.30;;;1.03;;
8001;SDS011;4046;48.774;8.732;2023-03-23T16:24:06;1.30;;;1.20;;
8001;SDS011;4046;48.774;8.732;2023-03-23T16:26:34;1.33;;;1.23;;
8001;SDS011;4046;48.774;8.732;2023-03-23T16:29:01;2.53;;;1.20;;
8001;SDS011;4046;48.774;8.732;2023-03-23T16:31:27;1.40;;;1.30;;
8001;SDS011;4046;48.774;8.732;2023-03-23T16:33:54;1.30;;;1.20;;
8001;SDS011;4046;48.774;8.732;2023-03-23T16:36:20;2.83;;;1.20;;
8001;SDS011;4046;48.774;8.732;2023-03-23T16:38:46;2.07;;;1.20;;
8001;SDS011;4046;48.774;8.732;2023-03-23T16:41:12;1.43;;;1.20;;
8001;SDS011;4046;48.774;8.732;2023-03-23T16:43:39;1.30;;;1.13;;
8001;SDS011;4046;48.774;8.732;2023-03-23T16:46:05;1.60;;;1.20;;
8001;SDS011;4046;48.774;8.732;2023-03-23T16:48:31;1.90;;;1.23;;
8001;SDS011;4046;48.774;8.732;2023-03-23T16:50:57;1.87;;;1.20;;
8001;SDS011;4046;48.774;8.732;2023-03-23T16:53:23;1.30;;;1.00;;
8001;SDS011;4046;48.774;8.732;2023-03-23T16:55:50;1.60;;;1.20;;
8001;SDS011;4046;48.774;8.732;2023-03-23T16:58:17;1.27;;;1.10;;
8001;SDS011;4046;48.774;8.732;2023-03-23T17:00:46;1.40;;;1.20;;
8001;SDS011;4046;48.774;8.732;2023-03-23T17:03:13;1.47;;;1.20;;
8001;SDS011;4046;48.774;8.732;2023-03-23T17:05:40;2.10;;;1.30;;
8001;SDS011;4046;48.774;8.732;2023-03-23T17:08:07;1.50;;;1.40;;
8001;SDS011;4046;48.774;8.732;2023-03-23T17:10:35;1.57;;;1.33;;
8001;SDS011;4046;48.774;8.732;2023-03-23T17:13:03;1.67;;;1.40;;
8001;SDS011;4046;48.774;8.732;2023-03-23T17:15:29;1.63;;;1.53;;
8001;SDS011;4046;48.774;8.732;2023-03-23T17:17:55;1.50;;;1.40;;